Startpagina
METAR-TAF:

METAR-TAF

Vliegvelden :

Rzeszów, Polen

breedte: 50-06N, lengte: 022-03E, hoogte: 200 m

Actueel weer

Dit bericht is 22 minuten geleden gemaakt, om 00:00 UTC
Wind 9 kt uit het noordnoordwesten
Temperatuur 11°C
Vochtigheid 87%
Druk 1015 hPa
Zicht 10 km of meer
geen wolken onder 1500 m en geen cumulonimbus

METAR: EPRZ 010000Z 34009KT CAVOK 11/09 Q1015

Tijdstip: 02:22 (00:22 UTC)

Verwachting

Dit bericht is 52 minuten geleden gemaakt, om 23:30 UTC
Verwachting geldig van 01 om 00 UTC tot 01 om 24 UTC
Wind 8 kt uit het noorden
Zicht 10 km of meer
geen wolken onder 1500 m en geen cumulonimbus
Tijdelijke
van 01 om 08 UTC tot 01 om 16 UTC
Wind 15 kt uit het noorden met uitschieters tot 26 kt

TAF: EPRZ 312330Z 0100/0124 35008KT CAVOK TEMPO 0108/0116 36015G26KT

Waarnemingen en weersverwachtingen van meer dan 4000 vliegvelden (METAR en TAF).

De beschikbare stations zijn de gele en rode punten op de kaart.

Ga met uw muis naar het station om de naam te zien.

Klik dan om waarnemingen en weersverwachtingen te zien.

kaart wijzigen: klik op de groene knoppen met een zwart kruis om in te zoomen, op de groene knop met een streepje om uit te zoomen of op de groene pijlen voor aangrenzende kaarten.


METAR-TAF: